Time;durP1;ratioP1;P1;durP2;ratioP2;P2;SDS_P1;SDS_P2;PMS_P1;PMS_P2;Temp;Humidity;BMP_temperature;BMP_pressure;BME280_temperature;BME280_humidity;BME280_pressure;Samples;Min_cycle;Max_cycle;Signal;HPM_P1;HPM_P2
2021/04/17 00:01:57;;;;;;;6.77;3.90;;;7.50;1.00;;;;;;5075471;28;20192;-80
2021/04/17 00:04:24;;;;;;;7.77;3.53;;;7.40;1.00;;;;;;5075231;28;20172;-80
2021/04/17 00:06:50;;;;;;;9.33;4.63;;;7.40;1.00;;;;;;5073692;28;20576;-81
2021/04/17 00:09:19;;;;;;;7.47;3.97;;;7.40;1.00;;;;;;5074906;28;20169;-83
2021/04/17 00:11:46;;;;;;;6.80;4.10;;;7.40;1.00;;;;;;5073964;28;20874;-80
2021/04/17 00:14:17;;;;;;;7.23;3.90;;;7.30;1.00;;;;;;5075177;28;20175;-80
2021/04/17 00:16:43;;;;;;;7.03;3.53;;;7.30;1.00;;;;;;5075107;28;20164;-81
2021/04/17 00:19:09;;;;;;;4.87;3.07;;;7.30;1.00;;;;;;5074602;28;20717;-80
2021/04/17 00:21:35;;;;;;;9.27;3.93;;;7.30;1.00;;;;;;5073688;28;20601;-82
2021/04/17 00:24:01;;;;;;;10.17;4.17;;;7.20;1.00;;;;;;5074436;28;20172;-80
2021/04/17 00:26:27;;;;;;;5.30;3.93;;;7.20;1.00;;;;;;5074659;28;20215;-79
2021/04/17 00:28:53;;;;;;;7.70;3.57;;;7.20;1.00;;;;;;5074659;28;20161;-79
2021/04/17 00:31:19;;;;;;;8.17;3.87;;;7.10;1.00;;;;;;5074736;28;20184;-79
2021/04/17 00:33:45;;;;;;;7.53;3.80;;;7.10;1.00;;;;;;5074915;28;20172;-83
2021/04/17 00:36:10;;;;;;;6.47;3.70;;;7.10;1.00;;;;;;5073283;28;20202;-79
2021/04/17 00:38:36;;;;;;;7.23;3.77;;;7.10;1.00;;;;;;5072943;28;20179;-79
2021/04/17 00:41:02;;;;;;;7.70;3.70;;;7.10;1.00;;;;;;5073291;28;20184;-80
2021/04/17 00:43:29;;;;;;;9.23;4.07;;;7.00;1.00;;;;;;5074363;28;20180;-81
2021/04/17 00:45:55;;;;;;;8.30;4.30;;;7.00;1.00;;;;;;5074229;28;20204;-79
2021/04/17 00:48:20;;;;;;;8.97;4.00;;;7.00;1.00;;;;;;5073175;28;20171;-81
2021/04/17 00:50:46;;;;;;;7.80;3.77;;;7.00;1.00;;;;;;5074142;28;20189;-81
2021/04/17 00:53:12;;;;;;;6.27;4.00;;;6.90;1.00;;;;;;5074195;28;20632;-81
2021/04/17 00:55:38;;;;;;;5.33;3.50;;;7.00;1.00;;;;;;5072867;28;20594;-80
2021/04/17 00:58:05;;;;;;;9.30;3.87;;;6.90;1.00;;;;;;5074346;28;20176;-80
2021/04/17 01:00:35;;;;;;;7.33;3.37;;;6.90;1.00;;;;;;5073995;28;20179;-84
2021/04/17 01:03:05;;;;;;;9.43;4.13;;;6.80;1.00;;;;;;5072994;28;20259;-81
2021/04/17 01:05:33;;;;;;;6.67;3.67;;;6.90;1.00;;;;;;5073849;28;20204;-80
2021/04/17 01:08:02;;;;;;;5.23;3.83;;;6.80;1.00;;;;;;5073780;28;20200;-81
2021/04/17 01:10:36;;;;;;;8.40;4.00;;;6.80;1.00;;;;;;5073812;28;20179;-80
2021/04/17 01:13:03;;;;;;;5.60;3.13;;;6.80;1.00;;;;;;5072632;28;20172;-82
2021/04/17 01:15:29;;;;;;;5.70;3.50;;;6.80;1.00;;;;;;5073704;28;20160;-82
2021/04/17 01:17:58;;;;;;;6.37;3.90;;;6.80;1.00;;;;;;5073999;28;20175;-80
2021/04/17 01:20:43;;;;;;;7.10;4.50;;;6.80;1.00;;;;;;5073601;28;20192;-81
2021/04/17 01:23:17;;;;;;;9.20;3.90;;;6.80;1.00;;;;;;5073587;28;20176;-81
2021/04/17 01:26:02;;;;;;;6.80;3.93;;;6.70;1.00;;;;;;5071888;28;20212;-81
2021/04/17 01:28:31;;;;;;;7.23;3.73;;;6.70;1.00;;;;;;5072255;28;20267;-81
2021/04/17 01:30:58;;;;;;;8.67;4.23;;;6.70;1.00;;;;;;5073061;28;20214;-80
2021/04/17 01:33:27;;;;;;;7.97;3.87;;;6.70;1.00;;;;;;5072162;28;20641;-81
2021/04/17 01:35:54;;;;;;;7.87;4.10;;;6.60;1.00;;;;;;5071948;28;20203;-81
2021/04/17 01:38:30;;;;;;;9.10;4.10;;;6.60;1.00;;;;;;5071969;28;20267;-81
2021/04/17 01:41:00;;;;;;;7.03;3.60;;;6.60;1.00;;;;;;5072239;28;20160;-80
2021/04/17 01:43:28;;;;;;;6.47;3.70;;;6.50;1.00;;;;;;5073447;28;20510;-83
2021/04/17 01:45:58;;;;;;;6.60;3.87;;;6.50;1.00;;;;;;5071822;28;20617;-79
2021/04/17 01:48:28;;;;;;;7.07;3.80;;;6.50;1.00;;;;;;5073325;28;20157;-80
2021/04/17 01:50:55;;;;;;;9.57;4.43;;;6.50;1.00;;;;;;5071581;28;20196;-81
2021/04/17 01:53:23;;;;;;;7.60;4.17;;;6.50;1.00;;;;;;5072066;28;20175;-80
2021/04/17 01:55:51;;;;;;;7.17;3.90;;;6.40;1.00;;;;;;5071825;28;20188;-81
2021/04/17 01:58:24;;;;;;;9.60;4.07;;;6.40;1.00;;;;;;5073253;28;20213;-80
2021/04/17 02:00:54;;;;;;;7.83;4.30;;;6.40;1.00;;;;;;5072991;28;20164;-82
2021/04/17 02:03:20;;;;;;;7.53;4.07;;;6.40;4.30;;;;;;5071843;28;20271;-82
2021/04/17 02:05:50;;;;;;;5.57;4.10;;;6.40;2.20;;;;;;5072787;28;20290;-81
2021/04/17 02:08:16;;;;;;;6.30;4.00;;;6.30;4.40;;;;;;5072966;28;20624;-80
2021/04/17 02:10:43;;;;;;;6.33;4.03;;;6.30;3.50;;;;;;5073162;28;20182;-83
2021/04/17 02:13:10;;;;;;;6.33;4.07;;;6.30;3.40;;;;;;5072977;28;20513;-83
2021/04/17 02:15:37;;;;;;;10.33;5.00;;;6.30;4.10;;;;;;5071738;28;20632;-81
2021/04/17 02:18:13;;;;;;;8.90;4.73;;;6.30;5.00;;;;;;5071782;28;20537;-82
2021/04/17 02:21:02;;;;;;;8.33;4.30;;;6.20;7.70;;;;;;5071481;28;20183;-82
2021/04/17 02:23:29;;;;;;;7.30;4.40;;;6.20;10.30;;;;;;5071616;28;20194;-80
2021/04/17 02:25:56;;;;;;;7.90;4.83;;;6.20;11.00;;;;;;5071629;28;20310;-82
2021/04/17 02:28:23;;;;;;;9.77;5.17;;;6.20;13.00;;;;;;5071743;28;20608;-81
2021/04/17 02:30:49;;;;;;;8.20;5.30;;;6.20;13.80;;;;;;5073032;28;20207;-80
2021/04/17 02:33:14;;;;;;;10.53;6.30;;;6.10;14.20;;;;;;5071636;28;20203;-83
2021/04/17 02:35:40;;;;;;;9.87;4.87;;;6.10;15.90;;;;;;5072801;28;20171;-82
2021/04/17 02:38:05;;;;;;;7.30;4.97;;;6.00;18.40;;;;;;5072901;28;20160;-81
2021/04/17 02:40:32;;;;;;;8.83;4.60;;;6.00;21.10;;;;;;5072932;28;20168;-81
2021/04/17 02:42:58;;;;;;;8.87;5.40;;;6.00;21.10;;;;;;5075301;28;20168;-81
2021/04/17 02:45:24;;;;;;;11.07;4.87;;;6.00;21.90;;;;;;5075734;28;20548;-82
2021/04/17 02:47:49;;;;;;;7.17;4.47;;;6.00;23.50;;;;;;5075243;28;20172;-80
2021/04/17 02:50:15;;;;;;;7.87;4.97;;;5.90;25.10;;;;;;5075702;28;20168;-80
2021/04/17 02:52:41;;;;;;;8.50;5.23;;;5.90;25.10;;;;;;5076644;28;20287;-81
2021/04/17 02:55:08;;;;;;;8.53;4.47;;;5.90;27.50;;;;;;5075350;28;20176;-83
2021/04/17 02:57:33;;;;;;;8.57;5.03;;;5.90;28.10;;;;;;5076588;28;20178;-80
2021/04/17 02:59:59;;;;;;;8.20;4.93;;;5.80;29.10;;;;;;5076751;28;20172;-81
2021/04/17 03:02:25;;;;;;;10.60;6.00;;;5.90;30.00;;;;;;5074993;28;20164;-83
2021/04/17 03:04:50;;;;;;;10.13;5.77;;;5.80;32.00;;;;;;5075177;28;20176;-81
2021/04/17 03:07:16;;;;;;;9.33;5.30;;;5.80;33.00;;;;;;5076454;28;20553;-80
2021/04/17 03:09:42;;;;;;;9.83;5.00;;;5.70;34.10;;;;;;5076356;28;20174;-80
2021/04/17 03:12:08;;;;;;;8.90;5.40;;;5.70;35.70;;;;;;5076504;28;20207;-81
2021/04/17 03:14:34;;;;;;;9.10;5.10;;;5.70;37.40;;;;;;5075919;28;20164;-82
2021/04/17 03:16:59;;;;;;;10.17;5.13;;;5.60;37.60;;;;;;5074861;28;20267;-83
2021/04/17 03:19:25;;;;;;;7.90;4.80;;;5.60;37.90;;;;;;5076312;28;20172;-82
2021/04/17 03:21:51;;;;;;;9.93;5.53;;;5.60;37.20;;;;;;5076199;28;20222;-80
2021/04/17 03:24:16;;;;;;;7.67;5.23;;;5.60;37.90;;;;;;5075953;28;20188;-82
2021/04/17 03:26:42;;;;;;;10.13;5.27;;;5.60;38.80;;;;;;5076035;28;20286;-84
2021/04/17 03:29:07;;;;;;;9.80;5.87;;;5.50;40.50;;;;;;5074599;28;20172;-81
2021/04/17 03:31:33;;;;;;;10.47;5.60;;;5.50;39.40;;;;;;5075902;28;20179;-81
2021/04/17 03:33:59;;;;;;;8.53;5.83;;;5.60;40.10;;;;;;5076078;28;20731;-79
2021/04/17 03:36:24;;;;;;;14.77;5.50;;;5.50;40.70;;;;;;5076021;28;20261;-81
2021/04/17 03:38:50;;;;;;;10.00;5.57;;;5.50;42.50;;;;;;5075751;28;20180;-78
2021/04/17 03:41:16;;;;;;;8.83;5.80;;;5.40;43.00;;;;;;5075871;28;20238;-79
2021/04/17 03:43:42;;;;;;;12.47;6.10;;;5.50;42.60;;;;;;5075619;28;20210;-79
2021/04/17 03:46:08;;;;;;;13.93;6.67;;;5.50;42.30;;;;;;5074128;28;20211;-80
2021/04/17 03:48:33;;;;;;;9.17;5.20;;;5.50;41.20;;;;;;5075625;28;20317;-81
2021/04/17 03:50:59;;;;;;;10.70;5.80;;;5.40;42.00;;;;;;5075644;28;20194;-81
2021/04/17 03:53:24;;;;;;;10.23;5.83;;;5.40;43.70;;;;;;5073727;28;20172;-82
2021/04/17 03:55:50;;;;;;;9.03;5.77;;;5.40;45.20;;;;;;5075854;28;20580;-81
2021/04/17 03:58:16;;;;;;;9.20;5.30;;;5.40;44.80;;;;;;5074261;28;20184;-80
2021/04/17 04:00:42;;;;;;;11.53;6.40;;;5.30;45.70;;;;;;5073848;28;20255;-80
2021/04/17 04:03:07;;;;;;;8.43;5.27;;;5.30;45.80;;;;;;5074142;28;20685;-81
2021/04/17 04:05:33;;;;;;;11.20;5.90;;;5.30;46.40;;;;;;5073900;28;20250;-81
2021/04/17 04:07:58;;;;;;;8.60;5.47;;;5.30;47.30;;;;;;5075766;28;20644;-80
2021/04/17 04:10:24;;;;;;;10.17;5.57;;;5.30;48.00;;;;;;5073870;28;20179;-82
2021/04/17 04:12:50;;;;;;;10.47;6.03;;;5.30;48.20;;;;;;5075211;28;20168;-82
2021/04/17 04:15:16;;;;;;;9.17;5.57;;;5.30;47.20;;;;;;5074904;28;20176;-83
2021/04/17 04:17:42;;;;;;;11.90;5.70;;;5.30;49.60;;;;;;5073784;28;20653;-80
2021/04/17 04:20:09;;;;;;;10.13;6.10;;;5.20;48.90;;;;;;5074990;28;20589;-83
2021/04/17 04:22:35;;;;;;;13.50;7.10;;;5.20;49.00;;;;;;5073886;28;20268;-82
2021/04/17 04:25:02;;;;;;;9.20;6.30;;;5.20;50.00;;;;;;5074611;28;20333;-79
2021/04/17 04:27:28;;;;;;;11.43;6.43;;;5.20;51.30;;;;;;5073809;28;20231;-83
2021/04/17 04:29:54;;;;;;;9.20;5.33;;;5.20;52.70;;;;;;5074344;28;20177;-79
2021/04/17 04:32:20;;;;;;;9.00;5.83;;;5.20;52.30;;;;;;5073739;28;20645;-79
2021/04/17 04:34:45;;;;;;;8.67;5.83;;;5.20;50.70;;;;;;5074717;28;20271;-80
2021/04/17 04:37:11;;;;;;;9.23;5.80;;;5.30;50.10;;;;;;5074857;28;20172;-81
2021/04/17 04:39:36;;;;;;;8.67;5.03;;;5.20;49.10;;;;;;5074707;28;20180;-81
2021/04/17 04:42:02;;;;;;;10.57;6.23;;;5.20;49.10;;;;;;5074809;28;20176;-81
2021/04/17 04:44:29;;;;;;;11.67;6.07;;;5.20;48.50;;;;;;5074205;28;20180;-79
2021/04/17 04:46:54;;;;;;;10.20;5.73;;;5.20;48.20;;;;;;5073320;28;20220;-82
2021/04/17 04:49:20;;;;;;;9.37;6.30;;;5.10;50.20;;;;;;5073271;28;20171;-81
2021/04/17 04:51:45;;;;;;;9.57;5.90;;;5.10;50.60;;;;;;5073104;28;20287;-81
2021/04/17 04:54:11;;;;;;;12.43;6.43;;;5.10;51.00;;;;;;5073003;28;20180;-81
2021/04/17 04:56:37;;;;;;;14.07;6.20;;;5.10;49.60;;;;;;5073918;28;20180;-81
2021/04/17 04:59:02;;;;;;;8.87;5.67;;;5.10;51.40;;;;;;5074117;28;20172;-82
2021/04/17 05:01:28;;;;;;;12.40;6.03;;;5.20;51.20;;;;;;5072820;28;20195;-83
2021/04/17 05:03:54;;;;;;;9.07;6.50;;;5.20;50.70;;;;;;5074075;28;20620;-82
2021/04/17 05:06:19;;;;;;;11.77;5.60;;;5.20;50.40;;;;;;5071572;28;20207;-81
2021/04/17 05:08:45;;;;;;;10.37;6.17;;;5.20;49.30;;;;;;5072676;28;20172;-82
2021/04/17 05:11:11;;;;;;;8.63;5.67;;;5.20;48.50;;;;;;5073942;28;20179;-82
2021/04/17 05:13:37;;;;;;;9.80;6.13;;;5.20;46.30;;;;;;5073857;28;20192;-83
2021/04/17 05:16:03;;;;;;;11.30;6.53;;;5.10;48.50;;;;;;5073767;28;20180;-83
2021/04/17 05:18:28;;;;;;;14.00;7.37;;;5.10;50.50;;;;;;5073725;28;20173;-82
2021/04/17 05:20:54;;;;;;;11.07;4.87;;;5.10;47.70;;;;;;5073712;28;20180;-82
2021/04/17 05:23:20;;;;;;;13.77;6.90;;;5.10;48.20;;;;;;5073664;28;20255;-83
2021/04/17 05:25:45;;;;;;;9.30;5.37;;;5.10;51.60;;;;;;5073181;28;20248;-83
2021/04/17 05:28:11;;;;;;;12.77;6.33;;;5.10;49.20;;;;;;5071771;28;20171;-82
2021/04/17 05:30:37;;;;;;;10.27;6.43;;;5.10;48.70;;;;;;5072108;28;20169;-83
2021/04/17 05:33:03;;;;;;;11.40;6.30;;;5.10;48.00;;;;;;5073638;28;20172;-82
2021/04/17 05:35:29;;;;;;;10.33;5.80;;;5.10;46.80;;;;;;5073095;28;20198;-83
2021/04/17 05:37:55;;;;;;;9.07;5.73;;;5.10;46.10;;;;;;5073390;28;20161;-82
2021/04/17 05:40:21;;;;;;;9.67;6.40;;;5.10;47.60;;;;;;5072095;28;20195;-81
2021/04/17 05:42:46;;;;;;;8.63;5.93;;;5.10;46.20;;;;;;5072934;28;20553;-82
2021/04/17 05:45:13;;;;;;;9.17;5.63;;;5.10;46.30;;;;;;5071820;28;20200;-82
2021/04/17 05:47:39;;;;;;;10.70;5.83;;;5.20;45.30;;;;;;5072949;28;20191;-81
2021/04/17 05:50:05;;;;;;;11.57;6.03;;;5.20;41.70;;;;;;5073337;28;20173;-81
2021/04/17 05:52:31;;;;;;;7.60;5.37;;;5.20;40.40;;;;;;5072784;28;20188;-83
2021/04/17 05:54:56;;;;;;;10.50;5.93;;;5.20;43.20;;;;;;5073030;28;20651;-82
2021/04/17 05:57:22;;;;;;;9.77;6.10;;;5.20;39.00;;;;;;5072816;28;20183;-80
2021/04/17 05:59:47;;;;;;;9.17;5.97;;;5.20;39.30;;;;;;5073449;28;20164;-80
2021/04/17 06:02:13;;;;;;;8.90;5.30;;;5.30;42.50;;;;;;5072999;28;20666;-81
2021/04/17 06:04:38;;;;;;;8.80;5.17;;;5.30;37.30;;;;;;5073268;28;20175;-82
2021/04/17 06:07:04;;;;;;;11.77;6.20;;;5.30;36.50;;;;;;5072732;28;20315;-83
2021/04/17 06:09:30;;;;;;;9.90;6.17;;;5.30;36.30;;;;;;5073235;28;20172;-80
2021/04/17 06:11:57;;;;;;;9.13;5.03;;;5.40;33.00;;;;;;5072838;28;20172;-82
2021/04/17 06:14:22;;;;;;;9.27;5.27;;;5.40;29.10;;;;;;5071863;28;20262;-81
2021/04/17 06:16:48;;;;;;;11.27;5.50;;;5.40;26.40;;;;;;5072639;28;20255;-81
2021/04/17 06:19:13;;;;;;;10.57;5.23;;;5.40;22.70;;;;;;5072958;28;20229;-82
2021/04/17 06:21:39;;;;;;;8.87;5.43;;;5.40;25.90;;;;;;5072754;28;20184;-81
2021/04/17 06:24:05;;;;;;;10.60;5.83;;;5.40;27.20;;;;;;5072706;28;20192;-81
2021/04/17 06:26:32;;;;;;;10.67;5.27;;;5.50;22.80;;;;;;5072726;28;20230;-81
2021/04/17 06:28:58;;;;;;;10.40;5.90;;;5.60;19.80;;;;;;5073070;28;20251;-81
2021/04/17 06:31:24;;;;;;;7.23;4.50;;;5.60;14.10;;;;;;5073040;28;20639;-79
2021/04/17 06:33:50;;;;;;;8.47;4.67;;;5.60;11.60;;;;;;5071190;28;20176;-80
2021/04/17 06:36:16;;;;;;;8.73;5.53;;;5.50;17.90;;;;;;5071684;28;20176;-81
2021/04/17 06:38:41;;;;;;;8.23;4.97;;;5.50;17.80;;;;;;5070837;28;20176;-82
2021/04/17 06:41:08;;;;;;;9.87;5.00;;;5.60;14.40;;;;;;5072554;28;20542;-82
2021/04/17 06:43:41;;;;;;;10.03;5.80;;;5.70;10.50;;;;;;5071297;28;20536;-80
2021/04/17 06:46:08;;;;;;;12.80;5.70;;;5.80;11.10;;;;;;5072529;28;20207;-80
2021/04/17 06:48:39;;;;;;;11.60;5.00;;;5.90;4.70;;;;;;5072434;28;20164;-81
2021/04/17 06:51:11;;;;;;;11.13;6.10;;;6.00;1.00;;;;;;5072466;28;20199;-79
2021/04/17 06:53:38;;;;;;;12.80;5.60;;;6.10;1.00;;;;;;5072149;28;20175;-81
2021/04/17 06:56:05;;;;;;;10.30;5.67;;;6.20;1.00;;;;;;5070430;28;20237;-81
2021/04/17 06:58:35;;;;;;;11.47;5.77;;;6.30;1.00;;;;;;5070711;28;20651;-81
2021/04/17 07:01:00;;;;;;;8.23;4.83;;;6.40;1.00;;;;;;5072448;28;20176;-83
2021/04/17 07:04:33;;;;;;;13.40;5.53;;;6.40;1.00;;;;;;5070539;28;20203;-81
2021/04/17 07:07:01;;;;;;;7.60;5.00;;;6.40;1.00;;;;;;5053080;28;20235;-83
2021/04/17 07:09:27;;;;;;;10.97;5.23;;;6.40;1.00;;;;;;5070388;28;20267;-81
2021/04/17 07:11:52;;;;;;;13.03;5.37;;;6.50;1.00;;;;;;5072070;28;20200;-81
2021/04/17 07:14:18;;;;;;;11.30;5.60;;;6.50;1.00;;;;;;5070910;28;20169;-83
2021/04/17 07:17:14;;;;;;;8.87;5.37;;;6.70;1.00;;;;;;5070874;28;20169;-79
2021/04/17 07:19:54;;;;;;;10.07;6.10;;;6.60;1.00;;;;;;5066003;28;20180;-80
2021/04/17 07:22:25;;;;;;;9.13;5.33;;;6.70;1.00;;;;;;5070519;28;20176;-80
2021/04/17 07:25:12;;;;;;;9.83;5.60;;;6.70;1.00;;;;;;5069338;28;20719;-81
2021/04/17 07:27:51;;;;;;;9.30;5.10;;;6.60;1.00;;;;;;5070828;28;20200;-80
2021/04/17 07:30:16;;;;;;;8.53;5.30;;;6.70;1.00;;;;;;5074410;28;20171;-83
2021/04/17 07:33:01;;;;;;;10.63;5.43;;;6.70;1.00;;;;;;5075524;28;20525;-80
2021/04/17 07:35:34;;;;;;;12.23;4.93;;;6.70;1.00;;;;;;5074261;28;20230;-82
2021/04/17 07:38:17;;;;;;;10.73;5.93;;;6.70;1.00;;;;;;5075132;28;20176;-81
2021/04/17 07:41:09;;;;;;;7.97;4.70;;;6.60;1.00;;;;;;5074289;28;20215;-82
2021/04/17 07:43:50;;;;;;;11.93;5.37;;;6.50;1.00;;;;;;5071283;28;20188;-82
2021/04/17 07:46:17;;;;;;;12.33;5.73;;;6.60;1.00;;;;;;5075311;28;20203;-84
2021/04/17 07:48:43;;;;;;;9.63;5.93;;;6.60;1.00;;;;;;5075096;28;20178;-82
2021/04/17 07:51:09;;;;;;;12.53;5.70;;;6.70;1.00;;;;;;5075065;28;20195;-82
2021/04/17 07:53:38;;;;;;;10.33;4.33;;;6.90;1.00;;;;;;5073691;28;20656;-84
2021/04/17 07:56:25;;;;;;;8.37;4.87;;;7.00;1.00;;;;;;5074899;28;20168;-82
2021/04/17 07:59:04;;;;;;;9.20;5.20;;;6.90;1.00;;;;;;5073448;28;20632;-83
2021/04/17 08:01:32;;;;;;;7.80;4.67;;;7.10;1.00;;;;;;5075024;28;20527;-81
2021/04/17 08:03:59;;;;;;;9.87;5.57;;;7.10;1.00;;;;;;5074856;28;20271;-84
2021/04/17 08:06:26;;;;;;;9.53;5.57;;;7.20;1.00;;;;;;5074715;28;20287;-83
2021/04/17 08:08:53;;;;;;;8.43;5.33;;;7.20;1.00;;;;;;5074635;28;20164;-81
2021/04/17 08:11:22;;;;;;;9.70;5.80;;;7.30;1.00;;;;;;5075035;28;20199;-82
2021/04/17 08:13:49;;;;;;;9.93;5.60;;;7.40;1.00;;;;;;5073198;28;20195;-81
2021/04/17 08:16:17;;;;;;;11.77;5.57;;;7.50;1.00;;;;;;5073607;28;20176;-82
2021/04/17 08:18:43;;;;;;;8.97;5.23;;;7.80;1.00;;;;;;5074500;28;20172;-82
2021/04/17 08:21:10;;;;;;;8.43;4.50;;;7.70;1.00;;;;;;5074315;28;20716;-79
2021/04/17 08:23:38;;;;;;;8.30;5.47;;;7.80;1.00;;;;;;5074444;28;20205;-81
2021/04/17 08:26:06;;;;;;;11.73;5.90;;;7.80;1.00;;;;;;5074310;28;20212;-83
2021/04/17 08:28:39;;;;;;;10.63;4.90;;;8.10;1.00;;;;;;5072998;28;20183;-83
2021/04/17 08:31:33;;;;;;;9.13;5.20;;;8.00;1.00;;;;;;5074422;28;20234;-84
2021/04/17 08:34:20;;;;;;;9.97;5.20;;;8.10;1.00;;;;;;5073921;28;20188;-82
2021/04/17 08:37:02;;;;;;;10.60;5.00;;;8.20;1.00;;;;;;5072633;28;20172;-80
2021/04/17 08:39:34;;;;;;;9.47;5.23;;;8.40;1.00;;;;;;5073975;28;20204;-82
2021/04/17 08:42:00;;;;;;;11.67;5.63;;;8.40;1.00;;;;;;5073003;28;20172;-83
2021/04/17 08:44:44;;;;;;;10.03;4.67;;;8.40;1.00;;;;;;5074159;28;20168;-82
2021/04/17 08:47:34;;;;;;;8.53;4.63;;;8.30;1.00;;;;;;5074071;28;20208;-82
2021/04/17 08:50:32;;;;;;;8.07;4.63;;;8.20;1.00;;;;;;5072505;28;20169;-82
2021/04/17 08:53:13;;;;;;;10.57;4.77;;;8.60;1.00;;;;;;5072843;28;20310;-82
2021/04/17 08:55:39;;;;;;;8.77;4.57;;;8.70;1.00;;;;;;5072683;28;20180;-83
2021/04/17 08:58:23;;;;;;;7.90;4.57;;;9.00;1.00;;;;;;5074082;28;20295;-82
2021/04/17 09:00:51;;;;;;;7.97;4.40;;;8.90;99.90;;;;;;5073707;28;20175;-82
2021/04/17 09:03:43;;;;;;;9.83;4.67;;;8.90;1.00;;;;;;5072569;28;20225;-83
2021/04/17 09:06:23;;;;;;;7.13;4.43;;;9.00;1.00;;;;;;5072973;28;20204;-83
2021/04/17 09:09:16;;;;;;;6.47;3.60;;;9.10;99.90;;;;;;5072132;28;20176;-84
2021/04/17 09:11:46;;;;;;;9.20;4.50;;;9.10;99.90;;;;;;5072076;28;20173;-81
2021/04/17 09:14:33;;;;;;;8.80;4.87;;;9.10;99.90;;;;;;5073127;28;20171;-81
2021/04/17 09:17:07;;;;;;;7.67;4.00;;;9.40;99.90;;;;;;5072172;28;20259;-83
2021/04/17 09:19:39;;;;;;;7.83;4.20;;;9.50;99.90;;;;;;5071894;28;20263;-82
2021/04/17 09:22:23;;;;;;;6.40;3.70;;;9.60;99.90;;;;;;5072008;28;20280;-82
2021/04/17 09:24:54;;;;;;;7.70;3.70;;;9.70;1.00;;;;;;5071786;28;20199;-79
2021/04/17 09:27:30;;;;;;;7.93;4.23;;;9.70;1.00;;;;;;5071699;28;20263;-83
2021/04/17 09:29:57;;;;;;;5.40;3.67;;;9.60;99.90;;;;;;5073218;28;20176;-81
2021/04/17 09:32:34;;;;;;;6.73;3.57;;;9.70;99.90;;;;;;5072970;28;20176;-82
2021/04/17 09:35:01;;;;;;;5.37;3.83;;;9.70;1.00;;;;;;5072910;28;20180;-83
2021/04/17 09:37:31;;;;;;;6.70;3.83;;;9.70;99.90;;;;;;5071980;28;20176;-85
2021/04/17 09:39:57;;;;;;;6.40;3.53;;;9.80;1.00;;;;;;5071525;28;20207;-83
2021/04/17 09:42:36;;;;;;;5.57;3.37;;;9.80;1.00;;;;;;5071321;28;20173;-83
2021/04/17 09:45:04;;;;;;;6.97;3.53;;;10.00;1.00;;;;;;5072994;28;20271;-83
2021/04/17 09:47:29;;;;;;;5.57;3.27;;;10.00;1.00;;;;;;5071501;28;20180;-84
2021/04/17 09:49:56;;;;;;;6.23;3.40;;;10.10;99.90;;;;;;5072337;28;20318;-82
2021/04/17 09:52:23;;;;;;;4.47;3.00;;;9.90;1.00;;;;;;5070836;28;20200;-80
2021/04/17 09:55:06;;;;;;;6.73;3.57;;;10.10;1.00;;;;;;5071109;28;20214;-83
2021/04/17 09:57:32;;;;;;;7.30;3.50;;;10.10;99.90;;;;;;5071551;28;20191;-83
2021/04/17 10:00:00;;;;;;;6.63;3.23;;;10.10;99.90;;;;;;5071267;28;20176;-82
2021/04/17 10:02:46;;;;;;;6.83;3.40;;;10.30;1.00;;;;;;5071019;28;20267;-84
2021/04/17 10:05:12;;;;;;;6.93;3.13;;;10.40;1.00;;;;;;5072512;28;20196;-84
2021/04/17 10:07:48;;;;;;;6.73;4.17;;;10.50;99.90;;;;;;5072566;28;20696;-84
2021/04/17 10:10:14;;;;;;;8.17;3.90;;;10.50;69.90;;;;;;5071489;28;20520;-81
2021/04/17 10:13:12;;;;;;;7.50;4.30;;;10.50;1.00;;;;;;5071971;28;20172;-82
2021/04/17 10:15:39;;;;;;;6.77;3.53;;;10.70;1.00;;;;;;5071859;28;20180;-81
2021/04/17 10:18:05;;;;;;;7.10;3.70;;;10.70;1.00;;;;;;5070775;28;20188;-84
2021/04/17 10:20:32;;;;;;;5.80;3.40;;;10.50;1.00;;;;;;5070942;28;20507;-81
2021/04/17 10:23:02;;;;;;;6.83;3.77;;;10.70;1.00;;;;;;5072243;28;20176;-84
2021/04/17 10:25:40;;;;;;;5.20;3.03;;;10.90;50.30;;;;;;5071037;28;20550;-83
2021/04/17 10:28:11;;;;;;;5.50;3.07;;;11.00;1.00;;;;;;5072429;28;20180;-84
2021/04/17 10:30:37;;;;;;;7.90;3.63;;;11.00;1.00;;;;;;5072644;28;20187;-84
2021/04/17 10:33:10;;;;;;;7.30;3.67;;;11.00;1.00;;;;;;5072012;28;20247;-83
2021/04/17 10:35:36;;;;;;;5.97;3.00;;;11.10;1.00;;;;;;5072143;28;20172;-83
2021/04/17 10:38:02;;;;;;;8.20;3.53;;;11.20;99.90;;;;;;5072168;28;20169;-83
2021/04/17 10:40:27;;;;;;;5.70;3.30;;;11.20;99.90;;;;;;5072402;28;20175;-83
2021/04/17 10:43:04;;;;;;;5.03;2.83;;;11.20;99.90;;;;;;5070702;28;20168;-83
2021/04/17 10:45:29;;;;;;;6.60;3.17;;;11.10;1.00;;;;;;5071166;28;20218;-83
2021/04/17 10:48:02;;;;;;;7.13;3.40;;;11.20;1.00;;;;;;5071992;28;20180;-85
2021/04/17 10:50:30;;;;;;;7.37;3.30;;;11.10;99.90;;;;;;5072506;28;20267;-84
2021/04/17 10:53:05;;;;;;;9.43;3.23;;;11.20;1.00;;;;;;5070994;28;20261;-84
2021/04/17 10:55:47;;;;;;;6.70;3.13;;;11.30;99.90;;;;;;5070851;28;20186;-80
2021/04/17 10:58:34;;;;;;;6.10;3.60;;;11.40;1.00;;;;;;5070822;28;20187;-85
2021/04/17 11:01:01;;;;;;;7.10;3.30;;;11.50;13.40;;;;;;5069807;28;20173;-84
2021/04/17 11:03:47;;;;;;;6.47;3.33;;;11.70;1.00;;;;;;5073512;28;20537;-85
2021/04/17 11:06:23;;;;;;;6.23;3.53;;;11.70;1.00;;;;;;5075971;28;20200;-84
2021/04/17 11:08:51;;;;;;;6.93;3.23;;;11.80;1.00;;;;;;5074344;28;20179;-80
2021/04/17 11:11:20;;;;;;;6.93;4.00;;;11.90;1.00;;;;;;5075697;28;20164;-84
2021/04/17 11:13:46;;;;;;;6.00;3.40;;;11.80;1.00;;;;;;5074451;28;20195;-83
2021/04/17 11:16:13;;;;;;;5.60;3.30;;;11.90;1.00;;;;;;5075754;28;20253;-82
2021/04/17 11:18:41;;;;;;;6.33;3.33;;;11.80;1.00;;;;;;5075569;28;20168;-83
2021/04/17 11:21:15;;;;;;;5.17;3.07;;;11.80;1.00;;;;;;5076157;28;20536;-82
2021/04/17 11:23:44;;;;;;;6.33;3.50;;;11.70;99.90;;;;;;5075405;28;20168;-82
2021/04/17 11:26:14;;;;;;;6.53;3.67;;;11.50;1.00;;;;;;5075413;28;20214;-82
2021/04/17 11:28:48;;;;;;;5.27;2.90;;;11.50;1.00;;;;;;5074056;28;20172;-82
2021/04/17 11:31:34;;;;;;;7.27;3.90;;;11.60;1.00;;;;;;5075384;28;20168;-85
2021/04/17 11:34:02;;;;;;;4.77;3.63;;;11.50;1.00;;;;;;5074063;28;20533;-83
2021/04/17 11:36:31;;;;;;;5.10;2.90;;;11.40;1.00;;;;;;5075257;28;20164;-82
2021/04/17 11:38:57;;;;;;;6.93;3.60;;;11.40;1.00;;;;;;5075313;28;20164;-84
2021/04/17 11:41:24;;;;;;;6.37;3.83;;;11.40;1.00;;;;;;5075604;28;20168;-84
2021/04/17 11:43:51;;;;;;;4.70;3.40;;;11.60;1.00;;;;;;5075571;28;20176;-84
2021/04/17 11:46:17;;;;;;;9.00;3.40;;;11.50;1.00;;;;;;5075049;28;20208;-84
2021/04/17 11:48:44;;;;;;;6.37;4.17;;;11.60;1.00;;;;;;5075120;28;20168;-83
2021/04/17 11:51:10;;;;;;;5.50;3.30;;;11.60;1.00;;;;;;5075284;28;20199;-83
2021/04/17 11:53:37;;;;;;;6.47;3.17;;;11.60;1.00;;;;;;5075302;28;20248;-85
2021/04/17 11:56:04;;;;;;;7.40;3.07;;;11.70;99.90;;;;;;5074180;28;20184;-85
2021/04/17 11:58:30;;;;;;;5.93;3.47;;;11.60;99.90;;;;;;5075269;28;20275;-84
2021/04/17 12:00:56;;;;;;;7.57;3.30;;;11.80;99.90;;;;;;5074684;28;20172;-83
2021/04/17 12:03:23;;;;;;;4.50;3.23;;;12.00;94.30;;;;;;5074927;28;20175;-82
2021/04/17 12:05:54;;;;;;;5.03;3.47;;;11.90;32.50;;;;;;5073123;28;20295;-83
2021/04/17 12:08:21;;;;;;;4.87;3.63;;;11.90;99.90;;;;;;5074602;28;20267;-81
2021/04/17 12:10:47;;;;;;;6.80;4.00;;;11.90;99.90;;;;;;5073549;28;20176;-82
2021/04/17 12:13:13;;;;;;;7.53;3.50;;;12.10;99.90;;;;;;5074570;28;20216;-84
2021/04/17 12:15:40;;;;;;;5.93;3.30;;;12.20;99.90;;;;;;5072186;28;20172;-83
2021/04/17 12:18:06;;;;;;;5.37;3.43;;;12.20;99.90;;;;;;5072738;28;20180;-82
2021/04/17 12:20:32;;;;;;;4.70;3.40;;;12.30;99.90;;;;;;5073780;28;20290;-82
2021/04/17 12:22:58;;;;;;;6.47;3.50;;;12.40;99.90;;;;;;5074359;28;20184;-81
2021/04/17 12:25:24;;;;;;;5.47;3.33;;;12.30;99.90;;;;;;5073827;28;20208;-81
2021/04/17 12:27:50;;;;;;;7.30;3.40;;;12.30;99.90;;;;;;5074169;28;20265;-82
2021/04/17 12:30:16;;;;;;;5.27;3.17;;;11.90;99.90;;;;;;5072747;28;20168;-82
2021/04/17 12:32:41;;;;;;;4.43;3.47;;;11.90;99.90;;;;;;5074427;28;20192;-82
2021/04/17 12:35:10;;;;;;;6.27;3.63;;;12.10;99.90;;;;;;5073995;28;20568;-82
2021/04/17 12:37:35;;;;;;;5.27;3.37;;;12.20;99.90;;;;;;5074377;28;20195;-85
2021/04/17 12:40:01;;;;;;;4.40;3.40;;;12.40;99.90;;;;;;5074324;28;20196;-82
2021/04/17 12:42:27;;;;;;;4.67;3.33;;;12.50;99.90;;;;;;5072608;28;20529;-83
2021/04/17 12:44:53;;;;;;;6.33;3.73;;;12.60;99.90;;;;;;5074056;28;20177;-82
2021/04/17 12:47:18;;;;;;;5.53;2.93;;;12.60;99.90;;;;;;5073998;28;20200;-80
2021/04/17 12:49:44;;;;;;;6.33;3.33;;;12.30;99.90;;;;;;5072817;28;20176;-84
2021/04/17 12:52:10;;;;;;;6.43;3.17;;;12.00;99.90;;;;;;5074163;28;20193;-82
2021/04/17 12:54:36;;;;;;;5.30;3.53;;;12.00;99.90;;;;;;5072477;28;20271;-82
2021/04/17 12:57:02;;;;;;;7.10;3.23;;;12.10;99.90;;;;;;5073314;28;20168;-84
2021/04/17 12:59:28;;;;;;;5.20;3.53;;;12.30;63.40;;;;;;5073727;28;20188;-82
2021/04/17 13:01:54;;;;;;;4.17;2.93;;;12.40;92.30;;;;;;5073491;28;20168;-83
2021/04/17 13:04:20;;;;;;;6.93;3.23;;;12.60;1.00;;;;;;5073528;28;20175;-82
2021/04/17 13:06:46;;;;;;;6.20;3.37;;;12.50;44.70;;;;;;5071876;28;20208;-84
2021/04/17 13:09:11;;;;;;;5.70;3.30;;;12.70;20.50;;;;;;5073412;28;20172;-80